sensor_id;sensor_type;location;lat;lon;timestamp;P1;durP1;ratioP1;P2;durP2;ratioP2
17214;SDS011;8723;51.502;6.918;2023-11-21T00:00:18;18.75;;;16.33;;
17214;SDS011;8723;51.502;6.918;2023-11-21T00:02:46;20.58;;;17.27;;
17214;SDS011;8723;51.502;6.918;2023-11-21T00:05:14;20.85;;;18.20;;
17214;SDS011;8723;51.502;6.918;2023-11-21T00:07:42;22.43;;;18.27;;
17214;SDS011;8723;51.502;6.918;2023-11-21T00:10:12;20.15;;;17.55;;
17214;SDS011;8723;51.502;6.918;2023-11-21T00:12:41;20.38;;;17.88;;
17214;SDS011;8723;51.502;6.918;2023-11-21T00:15:08;21.13;;;17.60;;
17214;SDS011;8723;51.502;6.918;2023-11-21T00:17:38;19.67;;;16.40;;
17214;SDS011;8723;51.502;6.918;2023-11-21T00:20:05;18.95;;;16.65;;
17214;SDS011;8723;51.502;6.918;2023-11-21T00:22:33;19.48;;;16.73;;
17214;SDS011;8723;51.502;6.918;2023-11-21T00:25:00;25.27;;;19.80;;
17214;SDS011;8723;51.502;6.918;2023-11-21T00:27:28;19.85;;;17.83;;
17214;SDS011;8723;51.502;6.918;2023-11-21T00:29:55;21.63;;;19.33;;
17214;SDS011;8723;51.502;6.918;2023-11-21T00:32:22;27.73;;;22.77;;
17214;SDS011;8723;51.502;6.918;2023-11-21T00:34:50;23.48;;;21.02;;
17214;SDS011;8723;51.502;6.918;2023-11-21T00:37:17;24.23;;;21.33;;
17214;SDS011;8723;51.502;6.918;2023-11-21T00:39:44;23.38;;;20.00;;
17214;SDS011;8723;51.502;6.918;2023-11-21T00:42:11;20.83;;;18.58;;
17214;SDS011;8723;51.502;6.918;2023-11-21T00:44:37;21.67;;;19.33;;
17214;SDS011;8723;51.502;6.918;2023-11-21T00:47:04;23.10;;;19.80;;
17214;SDS011;8723;51.502;6.918;2023-11-21T00:49:33;22.03;;;19.77;;
17214;SDS011;8723;51.502;6.918;2023-11-21T00:52:01;22.20;;;19.00;;
17214;SDS011;8723;51.502;6.918;2023-11-21T00:54:28;20.75;;;18.33;;
17214;SDS011;8723;51.502;6.918;2023-11-21T00:56:55;24.00;;;19.98;;
17214;SDS011;8723;51.502;6.918;2023-11-21T00:59:22;20.83;;;18.33;;
17214;SDS011;8723;51.502;6.918;2023-11-21T01:01:50;22.02;;;19.63;;
17214;SDS011;8723;51.502;6.918;2023-11-21T01:04:19;23.75;;;20.98;;
17214;SDS011;8723;51.502;6.918;2023-11-21T01:06:46;23.17;;;20.60;;
17214;SDS011;8723;51.502;6.918;2023-11-21T01:09:14;21.25;;;18.95;;
17214;SDS011;8723;51.502;6.918;2023-11-21T01:11:43;21.63;;;19.40;;
17214;SDS011;8723;51.502;6.918;2023-11-21T01:14:11;21.85;;;19.50;;
17214;SDS011;8723;51.502;6.918;2023-11-21T01:16:38;23.30;;;20.80;;
17214;SDS011;8723;51.502;6.918;2023-11-21T01:19:05;22.97;;;20.53;;
17214;SDS011;8723;51.502;6.918;2023-11-21T01:21:32;24.87;;;22.13;;
17214;SDS011;8723;51.502;6.918;2023-11-21T01:23:59;22.70;;;20.40;;
17214;SDS011;8723;51.502;6.918;2023-11-21T01:26:27;24.53;;;20.37;;
17214;SDS011;8723;51.502;6.918;2023-11-21T01:28:54;23.20;;;20.35;;
17214;SDS011;8723;51.502;6.918;2023-11-21T01:31:21;22.55;;;19.85;;
17214;SDS011;8723;51.502;6.918;2023-11-21T01:33:54;22.00;;;19.55;;
17214;SDS011;8723;51.502;6.918;2023-11-21T01:36:21;20.50;;;17.93;;
17214;SDS011;8723;51.502;6.918;2023-11-21T01:38:48;20.80;;;18.38;;
17214;SDS011;8723;51.502;6.918;2023-11-21T01:41:14;20.30;;;18.15;;
17214;SDS011;8723;51.502;6.918;2023-11-21T01:43:43;23.02;;;18.60;;
17214;SDS011;8723;51.502;6.918;2023-11-21T01:46:09;23.48;;;19.70;;
17214;SDS011;8723;51.502;6.918;2023-11-21T01:48:36;20.60;;;18.50;;
17214;SDS011;8723;51.502;6.918;2023-11-21T01:51:03;21.03;;;18.73;;
17214;SDS011;8723;51.502;6.918;2023-11-21T01:53:30;21.00;;;18.73;;
17214;SDS011;8723;51.502;6.918;2023-11-21T01:55:57;22.33;;;19.92;;
17214;SDS011;8723;51.502;6.918;2023-11-21T01:58:25;20.60;;;18.65;;
17214;SDS011;8723;51.502;6.918;2023-11-21T02:00:53;22.27;;;19.43;;
17214;SDS011;8723;51.502;6.918;2023-11-21T02:03:20;19.37;;;17.20;;
17214;SDS011;8723;51.502;6.918;2023-11-21T02:05:47;21.43;;;18.97;;
17214;SDS011;8723;51.502;6.918;2023-11-21T02:08:14;20.25;;;18.08;;
17214;SDS011;8723;51.502;6.918;2023-11-21T02:10:41;21.17;;;18.45;;
17214;SDS011;8723;51.502;6.918;2023-11-21T02:13:07;19.83;;;17.23;;
17214;SDS011;8723;51.502;6.918;2023-11-21T02:15:36;21.40;;;19.20;;
17214;SDS011;8723;51.502;6.918;2023-11-21T02:18:05;20.33;;;18.13;;
17214;SDS011;8723;51.502;6.918;2023-11-21T02:20:32;21.40;;;19.20;;
17214;SDS011;8723;51.502;6.918;2023-11-21T02:23:01;21.70;;;19.38;;
17214;SDS011;8723;51.502;6.918;2023-11-21T02:25:28;23.63;;;21.10;;
17214;SDS011;8723;51.502;6.918;2023-11-21T02:27:57;24.27;;;21.48;;
17214;SDS011;8723;51.502;6.918;2023-11-21T02:30:25;23.92;;;21.33;;
17214;SDS011;8723;51.502;6.918;2023-11-21T02:32:53;23.88;;;21.30;;
17214;SDS011;8723;51.502;6.918;2023-11-21T02:35:21;21.30;;;19.10;;
17214;SDS011;8723;51.502;6.918;2023-11-21T02:37:47;22.33;;;20.03;;
17214;SDS011;8723;51.502;6.918;2023-11-21T02:40:16;22.50;;;19.77;;
17214;SDS011;8723;51.502;6.918;2023-11-21T02:42:43;23.55;;;21.05;;
17214;SDS011;8723;51.502;6.918;2023-11-21T02:45:12;22.27;;;19.90;;
17214;SDS011;8723;51.502;6.918;2023-11-21T02:47:42;22.48;;;19.92;;
17214;SDS011;8723;51.502;6.918;2023-11-21T02:50:11;22.47;;;20.07;;
17214;SDS011;8723;51.502;6.918;2023-11-21T02:52:39;24.10;;;21.45;;
17214;SDS011;8723;51.502;6.918;2023-11-21T02:55:09;22.15;;;19.75;;
17214;SDS011;8723;51.502;6.918;2023-11-21T02:57:40;20.95;;;18.85;;
17214;SDS011;8723;51.502;6.918;2023-11-21T03:00:10;20.85;;;18.75;;
17214;SDS011;8723;51.502;6.918;2023-11-21T03:02:40;24.42;;;21.80;;
17214;SDS011;8723;51.502;6.918;2023-11-21T03:05:09;21.33;;;19.08;;
17214;SDS011;8723;51.502;6.918;2023-11-21T03:07:39;21.80;;;19.48;;
17214;SDS011;8723;51.502;6.918;2023-11-21T03:10:07;22.67;;;20.05;;
17214;SDS011;8723;51.502;6.918;2023-11-21T03:12:36;23.67;;;21.20;;
17214;SDS011;8723;51.502;6.918;2023-11-21T03:15:05;24.38;;;20.77;;
17214;SDS011;8723;51.502;6.918;2023-11-21T03:17:33;23.53;;;20.43;;
17214;SDS011;8723;51.502;6.918;2023-11-21T03:20:03;23.47;;;20.23;;
17214;SDS011;8723;51.502;6.918;2023-11-21T03:22:36;22.40;;;20.17;;
17214;SDS011;8723;51.502;6.918;2023-11-21T03:25:06;22.87;;;20.43;;
17214;SDS011;8723;51.502;6.918;2023-11-21T03:27:37;23.00;;;18.63;;
17214;SDS011;8723;51.502;6.918;2023-11-21T03:30:09;25.30;;;20.60;;
17214;SDS011;8723;51.502;6.918;2023-11-21T03:32:37;22.10;;;19.70;;
17214;SDS011;8723;51.502;6.918;2023-11-21T03:35:07;22.45;;;19.65;;
17214;SDS011;8723;51.502;6.918;2023-11-21T03:37:36;21.98;;;19.50;;
17214;SDS011;8723;51.502;6.918;2023-11-21T03:40:07;21.58;;;18.48;;
17214;SDS011;8723;51.502;6.918;2023-11-21T03:42:35;21.00;;;18.50;;
17214;SDS011;8723;51.502;6.918;2023-11-21T03:45:02;25.48;;;19.85;;
17214;SDS011;8723;51.502;6.918;2023-11-21T03:47:30;20.50;;;18.40;;
17214;SDS011;8723;51.502;6.918;2023-11-21T03:49:57;23.93;;;19.87;;
17214;SDS011;8723;51.502;6.918;2023-11-21T03:52:24;19.98;;;17.77;;
17214;SDS011;8723;51.502;6.918;2023-11-21T03:54:52;20.63;;;18.43;;
17214;SDS011;8723;51.502;6.918;2023-11-21T03:57:20;23.20;;;20.10;;
17214;SDS011;8723;51.502;6.918;2023-11-21T03:59:46;24.33;;;19.73;;
17214;SDS011;8723;51.502;6.918;2023-11-21T04:02:14;20.00;;;17.83;;
17214;SDS011;8723;51.502;6.918;2023-11-21T04:04:44;21.73;;;19.40;;
17214;SDS011;8723;51.502;6.918;2023-11-21T04:07:14;22.75;;;20.27;;
17214;SDS011;8723;51.502;6.918;2023-11-21T04:09:44;23.23;;;20.67;;
17214;SDS011;8723;51.502;6.918;2023-11-21T04:12:13;21.05;;;18.55;;
17214;SDS011;8723;51.502;6.918;2023-11-21T04:14:42;18.77;;;16.83;;
17214;SDS011;8723;51.502;6.918;2023-11-21T04:17:10;24.52;;;20.08;;
17214;SDS011;8723;51.502;6.918;2023-11-21T04:19:37;23.77;;;19.00;;
17214;SDS011;8723;51.502;6.918;2023-11-21T04:22:05;19.98;;;17.90;;
17214;SDS011;8723;51.502;6.918;2023-11-21T04:24:32;23.23;;;19.73;;
17214;SDS011;8723;51.502;6.918;2023-11-21T04:26:59;21.92;;;19.52;;
17214;SDS011;8723;51.502;6.918;2023-11-21T04:29:25;22.88;;;18.10;;
17214;SDS011;8723;51.502;6.918;2023-11-21T04:31:52;20.98;;;18.77;;
17214;SDS011;8723;51.502;6.918;2023-11-21T04:34:19;24.23;;;20.40;;
17214;SDS011;8723;51.502;6.918;2023-11-21T04:36:46;23.15;;;19.63;;
17214;SDS011;8723;51.502;6.918;2023-11-21T04:39:14;20.67;;;17.92;;
17214;SDS011;8723;51.502;6.918;2023-11-21T04:41:41;24.10;;;19.10;;
17214;SDS011;8723;51.502;6.918;2023-11-21T04:44:08;20.10;;;17.85;;
17214;SDS011;8723;51.502;6.918;2023-11-21T04:46:34;21.48;;;19.02;;
17214;SDS011;8723;51.502;6.918;2023-11-21T04:49:01;22.60;;;18.80;;
17214;SDS011;8723;51.502;6.918;2023-11-21T04:51:28;25.33;;;20.58;;
17214;SDS011;8723;51.502;6.918;2023-11-21T04:53:57;22.60;;;19.95;;
17214;SDS011;8723;51.502;6.918;2023-11-21T04:56:25;22.45;;;19.38;;
17214;SDS011;8723;51.502;6.918;2023-11-21T04:58:52;21.85;;;19.52;;
17214;SDS011;8723;51.502;6.918;2023-11-21T05:01:19;24.75;;;20.08;;
17214;SDS011;8723;51.502;6.918;2023-11-21T05:03:46;24.60;;;20.75;;
17214;SDS011;8723;51.502;6.918;2023-11-21T05:06:14;22.50;;;19.35;;
17214;SDS011;8723;51.502;6.918;2023-11-21T05:08:41;23.13;;;19.60;;
17214;SDS011;8723;51.502;6.918;2023-11-21T05:11:07;23.25;;;20.17;;
17214;SDS011;8723;51.502;6.918;2023-11-21T05:13:37;20.15;;;18.05;;
17214;SDS011;8723;51.502;6.918;2023-11-21T05:16:04;24.55;;;20.35;;
17214;SDS011;8723;51.502;6.918;2023-11-21T05:18:32;24.38;;;19.83;;
17214;SDS011;8723;51.502;6.918;2023-11-21T05:20:59;27.98;;;22.50;;
17214;SDS011;8723;51.502;6.918;2023-11-21T05:23:27;26.70;;;21.38;;
17214;SDS011;8723;51.502;6.918;2023-11-21T05:25:53;25.58;;;21.35;;
17214;SDS011;8723;51.502;6.918;2023-11-21T05:28:21;23.73;;;20.23;;
17214;SDS011;8723;51.502;6.918;2023-11-21T05:30:49;27.87;;;22.03;;
17214;SDS011;8723;51.502;6.918;2023-11-21T05:33:16;27.35;;;21.92;;
17214;SDS011;8723;51.502;6.918;2023-11-21T05:35:43;24.95;;;20.00;;
17214;SDS011;8723;51.502;6.918;2023-11-21T05:38:10;26.08;;;21.35;;
17214;SDS011;8723;51.502;6.918;2023-11-21T05:40:38;25.48;;;21.58;;
17214;SDS011;8723;51.502;6.918;2023-11-21T05:43:04;28.75;;;23.27;;
17214;SDS011;8723;51.502;6.918;2023-11-21T05:45:31;27.35;;;22.48;;
17214;SDS011;8723;51.502;6.918;2023-11-21T05:47:59;27.30;;;23.02;;
17214;SDS011;8723;51.502;6.918;2023-11-21T05:50:27;28.27;;;23.73;;
17214;SDS011;8723;51.502;6.918;2023-11-21T05:52:56;29.13;;;24.50;;
17214;SDS011;8723;51.502;6.918;2023-11-21T05:55:24;29.17;;;24.23;;
17214;SDS011;8723;51.502;6.918;2023-11-21T05:57:52;33.72;;;26.35;;
17214;SDS011;8723;51.502;6.918;2023-11-21T06:00:18;31.10;;;25.58;;
17214;SDS011;8723;51.502;6.918;2023-11-21T06:02:46;30.15;;;25.10;;
17214;SDS011;8723;51.502;6.918;2023-11-21T06:05:17;31.77;;;25.45;;
17214;SDS011;8723;51.502;6.918;2023-11-21T06:07:44;30.10;;;24.83;;
17214;SDS011;8723;51.502;6.918;2023-11-21T06:10:11;27.55;;;23.75;;
17214;SDS011;8723;51.502;6.918;2023-11-21T06:12:39;36.08;;;27.02;;
17214;SDS011;8723;51.502;6.918;2023-11-21T06:15:08;33.72;;;26.13;;
17214;SDS011;8723;51.502;6.918;2023-11-21T06:17:38;36.83;;;26.92;;
17214;SDS011;8723;51.502;6.918;2023-11-21T06:20:06;32.40;;;25.98;;
17214;SDS011;8723;51.502;6.918;2023-11-21T06:22:36;31.42;;;25.20;;
17214;SDS011;8723;51.502;6.918;2023-11-21T06:25:04;29.67;;;23.92;;
17214;SDS011;8723;51.502;6.918;2023-11-21T06:27:32;32.42;;;25.55;;
17214;SDS011;8723;51.502;6.918;2023-11-21T06:29:59;30.60;;;25.35;;
17214;SDS011;8723;51.502;6.918;2023-11-21T06:32:26;32.67;;;25.55;;
17214;SDS011;8723;51.502;6.918;2023-11-21T06:34:54;29.58;;;24.60;;
17214;SDS011;8723;51.502;6.918;2023-11-21T06:37:21;36.05;;;28.40;;
17214;SDS011;8723;51.502;6.918;2023-11-21T06:39:49;26.92;;;23.25;;
17214;SDS011;8723;51.502;6.918;2023-11-21T06:42:17;35.10;;;25.90;;
17214;SDS011;8723;51.502;6.918;2023-11-21T06:44:44;31.77;;;25.33;;
17214;SDS011;8723;51.502;6.918;2023-11-21T06:47:11;29.10;;;24.17;;
17214;SDS011;8723;51.502;6.918;2023-11-21T06:49:38;29.13;;;22.40;;
17214;SDS011;8723;51.502;6.918;2023-11-21T06:52:05;32.38;;;25.25;;
17214;SDS011;8723;51.502;6.918;2023-11-21T06:54:33;29.10;;;24.33;;
17214;SDS011;8723;51.502;6.918;2023-11-21T06:57:01;34.42;;;25.38;;
17214;SDS011;8723;51.502;6.918;2023-11-21T06:59:28;37.33;;;26.02;;
17214;SDS011;8723;51.502;6.918;2023-11-21T07:01:55;36.22;;;26.55;;
17214;SDS011;8723;51.502;6.918;2023-11-21T07:04:22;32.42;;;25.20;;
17214;SDS011;8723;51.502;6.918;2023-11-21T07:06:50;27.85;;;22.77;;
17214;SDS011;8723;51.502;6.918;2023-11-21T07:09:17;31.73;;;23.85;;
17214;SDS011;8723;51.502;6.918;2023-11-21T07:11:47;33.17;;;24.63;;
17214;SDS011;8723;51.502;6.918;2023-11-21T07:14:15;32.72;;;24.60;;
17214;SDS011;8723;51.502;6.918;2023-11-21T07:16:44;38.92;;;28.48;;
17214;SDS011;8723;51.502;6.918;2023-11-21T07:19:11;41.13;;;30.15;;
17214;SDS011;8723;51.502;6.918;2023-11-21T07:21:39;43.60;;;31.00;;
17214;SDS011;8723;51.502;6.918;2023-11-21T07:24:07;35.22;;;25.85;;
17214;SDS011;8723;51.502;6.918;2023-11-21T07:26:34;36.40;;;27.98;;
17214;SDS011;8723;51.502;6.918;2023-11-21T07:29:01;41.75;;;28.27;;
17214;SDS011;8723;51.502;6.918;2023-11-21T07:31:30;39.78;;;28.40;;
17214;SDS011;8723;51.502;6.918;2023-11-21T07:33:59;34.77;;;24.10;;
17214;SDS011;8723;51.502;6.918;2023-11-21T07:36:26;56.65;;;34.92;;
17214;SDS011;8723;51.502;6.918;2023-11-21T07:38:53;77.65;;;40.88;;
17214;SDS011;8723;51.502;6.918;2023-11-21T07:41:20;67.85;;;38.45;;
17214;SDS011;8723;51.502;6.918;2023-11-21T07:43:47;52.55;;;31.83;;
17214;SDS011;8723;51.502;6.918;2023-11-21T07:46:14;57.30;;;34.42;;
17214;SDS011;8723;51.502;6.918;2023-11-21T07:48:42;82.43;;;43.63;;
17214;SDS011;8723;51.502;6.918;2023-11-21T07:51:11;83.53;;;45.80;;
17214;SDS011;8723;51.502;6.918;2023-11-21T07:53:38;115.97;;;56.88;;
17214;SDS011;8723;51.502;6.918;2023-11-21T07:56:06;99.38;;;50.53;;
17214;SDS011;8723;51.502;6.918;2023-11-21T07:58:34;64.43;;;35.03;;
17214;SDS011;8723;51.502;6.918;2023-11-21T08:01:01;83.45;;;45.97;;
17214;SDS011;8723;51.502;6.918;2023-11-21T08:03:28;93.30;;;49.42;;
17214;SDS011;8723;51.502;6.918;2023-11-21T08:05:57;113.65;;;54.42;;
17214;SDS011;8723;51.502;6.918;2023-11-21T08:08:24;128.70;;;61.38;;
17214;SDS011;8723;51.502;6.918;2023-11-21T08:10:52;85.00;;;45.25;;
17214;SDS011;8723;51.502;6.918;2023-11-21T08:13:22;90.43;;;46.25;;
17214;SDS011;8723;51.502;6.918;2023-11-21T08:15:49;121.10;;;55.80;;
17214;SDS011;8723;51.502;6.918;2023-11-21T08:18:16;142.47;;;70.80;;
17214;SDS011;8723;51.502;6.918;2023-11-21T08:20:43;136.17;;;63.77;;
17214;SDS011;8723;51.502;6.918;2023-11-21T08:23:14;138.67;;;66.90;;
17214;SDS011;8723;51.502;6.918;2023-11-21T08:25:42;117.68;;;55.65;;
17214;SDS011;8723;51.502;6.918;2023-11-21T08:28:09;109.87;;;54.43;;
17214;SDS011;8723;51.502;6.918;2023-11-21T08:30:36;94.75;;;48.90;;
17214;SDS011;8723;51.502;6.918;2023-11-21T08:33:03;91.68;;;47.40;;
17214;SDS011;8723;51.502;6.918;2023-11-21T08:35:30;88.95;;;45.90;;
17214;SDS011;8723;51.502;6.918;2023-11-21T08:37:57;127.63;;;60.25;;
17214;SDS011;8723;51.502;6.918;2023-11-21T08:40:25;114.82;;;58.15;;
17214;SDS011;8723;51.502;6.918;2023-11-21T08:42:52;137.52;;;63.00;;
17214;SDS011;8723;51.502;6.918;2023-11-21T08:45:20;139.70;;;68.82;;
17214;SDS011;8723;51.502;6.918;2023-11-21T08:47:47;103.93;;;53.27;;
17214;SDS011;8723;51.502;6.918;2023-11-21T08:50:15;129.30;;;61.67;;
17214;SDS011;8723;51.502;6.918;2023-11-21T08:52:42;144.47;;;68.37;;
17214;SDS011;8723;51.502;6.918;2023-11-21T08:55:10;62.15;;;37.03;;
17214;SDS011;8723;51.502;6.918;2023-11-21T08:57:40;139.05;;;67.75;;
17214;SDS011;8723;51.502;6.918;2023-11-21T09:00:09;83.03;;;46.97;;
17214;SDS011;8723;51.502;6.918;2023-11-21T09:02:38;95.63;;;51.13;;
17214;SDS011;8723;51.502;6.918;2023-11-21T09:05:07;108.28;;;57.30;;
17214;SDS011;8723;51.502;6.918;2023-11-21T09:07:34;66.57;;;37.20;;
17214;SDS011;8723;51.502;6.918;2023-11-21T09:10:01;103.97;;;52.92;;
17214;SDS011;8723;51.502;6.918;2023-11-21T09:12:28;76.07;;;41.95;;
17214;SDS011;8723;51.502;6.918;2023-11-21T09:14:58;104.22;;;57.03;;
17214;SDS011;8723;51.502;6.918;2023-11-21T09:17:25;131.25;;;67.35;;
17214;SDS011;8723;51.502;6.918;2023-11-21T09:19:52;58.65;;;35.78;;
17214;SDS011;8723;51.502;6.918;2023-11-21T09:22:19;58.25;;;35.83;;
17214;SDS011;8723;51.502;6.918;2023-11-21T09:24:45;74.13;;;42.78;;
17214;SDS011;8723;51.502;6.918;2023-11-21T09:27:13;50.97;;;30.60;;
17214;SDS011;8723;51.502;6.918;2023-11-21T09:29:40;61.90;;;39.23;;
17214;SDS011;8723;51.502;6.918;2023-11-21T09:32:08;99.18;;;54.78;;
17214;SDS011;8723;51.502;6.918;2023-11-21T09:34:37;95.72;;;53.53;;
17214;SDS011;8723;51.502;6.918;2023-11-21T09:37:04;47.15;;;31.67;;
17214;SDS011;8723;51.502;6.918;2023-11-21T09:39:31;50.08;;;33.15;;
17214;SDS011;8723;51.502;6.918;2023-11-21T09:42:03;42.55;;;29.25;;
17214;SDS011;8723;51.502;6.918;2023-11-21T09:44:36;39.53;;;26.95;;
17214;SDS011;8723;51.502;6.918;2023-11-21T09:47:12;64.78;;;39.78;;
17214;SDS011;8723;51.502;6.918;2023-11-21T09:49:41;57.97;;;37.95;;
17214;SDS011;8723;51.502;6.918;2023-11-21T09:52:12;57.25;;;37.33;;
17214;SDS011;8723;51.502;6.918;2023-11-21T09:54:48;57.75;;;39.55;;
17214;SDS011;8723;51.502;6.918;2023-11-21T09:57:16;89.03;;;53.97;;
17214;SDS011;8723;51.502;6.918;2023-11-21T09:59:44;53.78;;;36.92;;
17214;SDS011;8723;51.502;6.918;2023-11-21T10:02:14;62.33;;;42.25;;
17214;SDS011;8723;51.502;6.918;2023-11-21T10:04:43;90.32;;;58.17;;
17214;SDS011;8723;51.502;6.918;2023-11-21T10:07:10;82.03;;;54.53;;
17214;SDS011;8723;51.502;6.918;2023-11-21T10:09:40;46.47;;;31.17;;
17214;SDS011;8723;51.502;6.918;2023-11-21T10:12:08;49.17;;;35.00;;
17214;SDS011;8723;51.502;6.918;2023-11-21T10:14:37;32.65;;;24.25;;
17214;SDS011;8723;51.502;6.918;2023-11-21T10:17:07;31.77;;;24.08;;
17214;SDS011;8723;51.502;6.918;2023-11-21T10:19:38;41.50;;;29.60;;
17214;SDS011;8723;51.502;6.918;2023-11-21T10:22:06;45.58;;;32.30;;
17214;SDS011;8723;51.502;6.918;2023-11-21T10:24:33;31.15;;;23.85;;
17214;SDS011;8723;51.502;6.918;2023-11-21T10:27:01;33.47;;;24.70;;
17214;SDS011;8723;51.502;6.918;2023-11-21T10:29:29;44.78;;;32.20;;
17214;SDS011;8723;51.502;6.918;2023-11-21T10:32:00;30.88;;;23.80;;
17214;SDS011;8723;51.502;6.918;2023-11-21T10:34:28;28.60;;;21.77;;
17214;SDS011;8723;51.502;6.918;2023-11-21T10:36:56;39.20;;;30.77;;
17214;SDS011;8723;51.502;6.918;2023-11-21T10:39:24;27.83;;;21.40;;
17214;SDS011;8723;51.502;6.918;2023-11-21T10:41:53;27.40;;;22.05;;
17214;SDS011;8723;51.502;6.918;2023-11-21T10:44:21;27.63;;;23.27;;
17214;SDS011;8723;51.502;6.918;2023-11-21T10:46:49;26.87;;;20.27;;
17214;SDS011;8723;51.502;6.918;2023-11-21T10:49:17;34.38;;;27.77;;
17214;SDS011;8723;51.502;6.918;2023-11-21T10:51:44;28.58;;;22.42;;
17214;SDS011;8723;51.502;6.918;2023-11-21T10:54:17;35.55;;;24.38;;
17214;SDS011;8723;51.502;6.918;2023-11-21T10:56:45;31.35;;;24.15;;
17214;SDS011;8723;51.502;6.918;2023-11-21T10:59:16;24.08;;;20.55;;
17214;SDS011;8723;51.502;6.918;2023-11-21T11:01:44;26.53;;;22.33;;
17214;SDS011;8723;51.502;6.918;2023-11-21T11:04:12;29.30;;;23.60;;
17214;SDS011;8723;51.502;6.918;2023-11-21T11:06:42;32.63;;;27.50;;
17214;SDS011;8723;51.502;6.918;2023-11-21T11:09:10;29.65;;;26.42;;
17214;SDS011;8723;51.502;6.918;2023-11-21T11:11:40;28.00;;;22.23;;
17214;SDS011;8723;51.502;6.918;2023-11-21T11:14:09;31.08;;;24.98;;
17214;SDS011;8723;51.502;6.918;2023-11-21T11:16:38;23.80;;;19.83;;
17214;SDS011;8723;51.502;6.918;2023-11-21T11:19:06;24.60;;;19.85;;
17214;SDS011;8723;51.502;6.918;2023-11-21T11:21:36;21.92;;;18.52;;
17214;SDS011;8723;51.502;6.918;2023-11-21T11:24:13;18.45;;;16.45;;
17214;SDS011;8723;51.502;6.918;2023-11-21T11:26:56;20.92;;;18.40;;
17214;SDS011;8723;51.502;6.918;2023-11-21T11:29:33;23.13;;;20.47;;
17214;SDS011;8723;51.502;6.918;2023-11-21T11:32:09;23.50;;;20.35;;
17214;SDS011;8723;51.502;6.918;2023-11-21T11:34:44;21.95;;;18.15;;
17214;SDS011;8723;51.502;6.918;2023-11-21T11:37:15;26.48;;;20.80;;
17214;SDS011;8723;51.502;6.918;2023-11-21T11:39:43;29.10;;;23.10;;
17214;SDS011;8723;51.502;6.918;2023-11-21T11:42:13;24.23;;;20.77;;
17214;SDS011;8723;51.502;6.918;2023-11-21T11:44:47;26.05;;;20.35;;
17214;SDS011;8723;51.502;6.918;2023-11-21T11:47:19;22.08;;;17.95;;
17214;SDS011;8723;51.502;6.918;2023-11-21T11:49:57;18.02;;;15.77;;
17214;SDS011;8723;51.502;6.918;2023-11-21T11:52:32;15.53;;;13.90;;
17214;SDS011;8723;51.502;6.918;2023-11-21T11:55:03;22.38;;;17.52;;
17214;SDS011;8723;51.502;6.918;2023-11-21T11:57:33;22.07;;;17.30;;
17214;SDS011;8723;51.502;6.918;2023-11-21T12:00:10;21.98;;;17.60;;
17214;SDS011;8723;51.502;6.918;2023-11-21T12:02:41;18.25;;;15.77;;
17214;SDS011;8723;51.502;6.918;2023-11-21T12:05:10;22.98;;;19.00;;
17214;SDS011;8723;51.502;6.918;2023-11-21T12:07:45;26.52;;;21.45;;
17214;SDS011;8723;51.502;6.918;2023-11-21T12:10:13;18.30;;;16.15;;
17214;SDS011;8723;51.502;6.918;2023-11-21T12:12:44;18.00;;;16.10;;
17214;SDS011;8723;51.502;6.918;2023-11-21T12:15:12;25.10;;;20.43;;
17214;SDS011;8723;51.502;6.918;2023-11-21T12:17:39;27.03;;;21.50;;
17214;SDS011;8723;51.502;6.918;2023-11-21T12:20:08;24.58;;;19.75;;
17214;SDS011;8723;51.502;6.918;2023-11-21T12:22:41;18.95;;;16.45;;
17214;SDS011;8723;51.502;6.918;2023-11-21T12:25:09;29.85;;;22.88;;
17214;SDS011;8723;51.502;6.918;2023-11-21T12:27:41;22.67;;;18.48;;
17214;SDS011;8723;51.502;6.918;2023-11-21T12:30:11;27.88;;;23.55;;
17214;SDS011;8723;51.502;6.918;2023-11-21T12:32:40;27.83;;;21.85;;
17214;SDS011;8723;51.502;6.918;2023-11-21T12:35:08;23.67;;;19.95;;
17214;SDS011;8723;51.502;6.918;2023-11-21T12:37:36;23.88;;;19.55;;
17214;SDS011;8723;51.502;6.918;2023-11-21T12:40:04;28.77;;;24.15;;
17214;SDS011;8723;51.502;6.918;2023-11-21T12:42:33;30.20;;;24.20;;
17214;SDS011;8723;51.502;6.918;2023-11-21T12:45:07;33.50;;;27.90;;
17214;SDS011;8723;51.502;6.918;2023-11-21T12:47:40;43.27;;;32.57;;
17214;SDS011;8723;51.502;6.918;2023-11-21T12:50:08;32.20;;;27.27;;
17214;SDS011;8723;51.502;6.918;2023-11-21T12:52:39;34.97;;;27.45;;
17214;SDS011;8723;51.502;6.918;2023-11-21T12:55:13;33.28;;;27.95;;
17214;SDS011;8723;51.502;6.918;2023-11-21T12:57:42;31.70;;;26.25;;
17214;SDS011;8723;51.502;6.918;2023-11-21T13:00:10;23.15;;;20.75;;
17214;SDS011;8723;51.502;6.918;2023-11-21T13:02:53;25.55;;;22.05;;
17214;SDS011;8723;51.502;6.918;2023-11-21T13:05:26;29.25;;;24.70;;
17214;SDS011;8723;51.502;6.918;2023-11-21T13:07:53;27.52;;;23.65;;
17214;SDS011;8723;51.502;6.918;2023-11-21T13:10:22;21.88;;;19.52;;
17214;SDS011;8723;51.502;6.918;2023-11-21T13:12:51;19.52;;;17.52;;
17214;SDS011;8723;51.502;6.918;2023-11-21T13:15:20;21.00;;;18.77;;
17214;SDS011;8723;51.502;6.918;2023-11-21T13:17:47;20.00;;;17.90;;
17214;SDS011;8723;51.502;6.918;2023-11-21T13:20:16;18.57;;;16.53;;
17214;SDS011;8723;51.502;6.918;2023-11-21T13:22:48;17.17;;;15.50;;
17214;SDS011;8723;51.502;6.918;2023-11-21T13:25:18;17.97;;;16.07;;
17214;SDS011;8723;51.502;6.918;2023-11-21T13:27:46;19.90;;;17.83;;
17214;SDS011;8723;51.502;6.918;2023-11-21T13:30:13;19.38;;;17.40;;
17214;SDS011;8723;51.502;6.918;2023-11-21T13:32:41;19.53;;;17.53;;
17214;SDS011;8723;51.502;6.918;2023-11-21T13:35:09;15.90;;;14.27;;
17214;SDS011;8723;51.502;6.918;2023-11-21T13:37:46;17.17;;;15.47;;
17214;SDS011;8723;51.502;6.918;2023-11-21T13:40:16;20.00;;;17.58;;
17214;SDS011;8723;51.502;6.918;2023-11-21T13:42:48;16.33;;;14.65;;
17214;SDS011;8723;51.502;6.918;2023-11-21T13:45:18;14.23;;;12.82;;
17214;SDS011;8723;51.502;6.918;2023-11-21T13:47:47;17.97;;;16.17;;
17214;SDS011;8723;51.502;6.918;2023-11-21T13:50:16;18.65;;;16.65;;
17214;SDS011;8723;51.502;6.918;2023-11-21T13:52:49;14.93;;;13.37;;
17214;SDS011;8723;51.502;6.918;2023-11-21T13:55:18;17.45;;;15.65;;
17214;SDS011;8723;51.502;6.918;2023-11-21T13:57:45;19.25;;;17.35;;
17214;SDS011;8723;51.502;6.918;2023-11-21T14:00:15;19.67;;;17.58;;
17214;SDS011;8723;51.502;6.918;2023-11-21T14:02:56;20.10;;;18.00;;
17214;SDS011;8723;51.502;6.918;2023-11-21T14:05:25;20.50;;;18.05;;
17214;SDS011;8723;51.502;6.918;2023-11-21T14:07:55;15.93;;;14.32;;
17214;SDS011;8723;51.502;6.918;2023-11-21T14:10:28;17.00;;;15.23;;
17214;SDS011;8723;51.502;6.918;2023-11-21T14:13:02;16.67;;;15.03;;
17214;SDS011;8723;51.502;6.918;2023-11-21T14:15:29;20.43;;;18.33;;
17214;SDS011;8723;51.502;6.918;2023-11-21T14:17:58;22.10;;;19.25;;
17214;SDS011;8723;51.502;6.918;2023-11-21T14:20:27;17.30;;;15.50;;
17214;SDS011;8723;51.502;6.918;2023-11-21T14:22:56;17.42;;;15.68;;
17214;SDS011;8723;51.502;6.918;2023-11-21T14:25:23;23.30;;;20.90;;
17214;SDS011;8723;51.502;6.918;2023-11-21T14:27:51;20.80;;;18.60;;
17214;SDS011;8723;51.502;6.918;2023-11-21T14:30:18;17.70;;;15.80;;
17214;SDS011;8723;51.502;6.918;2023-11-21T14:32:47;20.85;;;18.63;;
17214;SDS011;8723;51.502;6.918;2023-11-21T14:35:14;18.20;;;16.27;;
17214;SDS011;8723;51.502;6.918;2023-11-21T14:37:41;18.60;;;16.02;;
17214;SDS011;8723;51.502;6.918;2023-11-21T14:40:11;19.00;;;16.63;;